sensor_id;sensor_type;location;lat;lon;timestamp;P1;durP1;ratioP1;P2;durP2;ratioP2
40757;SDS011;26462;47.384;19.218;2023-02-01T00:11:28;10.70;;;2.83;;
40757;SDS011;26462;47.384;19.218;2023-02-01T03:20:25;3.10;;;0.60;;
40757;SDS011;26462;47.384;19.218;2023-02-01T03:26:49;3.28;;;0.70;;
40757;SDS011;26462;47.384;19.218;2023-02-01T03:32:49;1.33;;;0.60;;
40757;SDS011;26462;47.384;19.218;2023-02-01T03:55:58;4.78;;;1.25;;
40757;SDS011;26462;47.384;19.218;2023-02-01T03:58:26;3.70;;;1.70;;
40757;SDS011;26462;47.384;19.218;2023-02-01T04:03:56;4.15;;;1.05;;
40757;SDS011;26462;47.384;19.218;2023-02-01T04:28:13;11.68;;;7.10;;
40757;SDS011;26462;47.384;19.218;2023-02-01T04:30:43;9.18;;;5.85;;
40757;SDS011;26462;47.384;19.218;2023-02-01T04:36:45;6.95;;;3.58;;
40757;SDS011;26462;47.384;19.218;2023-02-01T04:39:12;7.07;;;3.63;;
40757;SDS011;26462;47.384;19.218;2023-02-01T04:41:40;7.43;;;3.22;;
40757;SDS011;26462;47.384;19.218;2023-02-01T04:46:48;5.05;;;2.35;;
40757;SDS011;26462;47.384;19.218;2023-02-01T04:49:15;7.75;;;3.40;;
40757;SDS011;26462;47.384;19.218;2023-02-01T04:54:44;7.22;;;5.05;;
40757;SDS011;26462;47.384;19.218;2023-02-01T05:04:24;5.20;;;2.83;;
40757;SDS011;26462;47.384;19.218;2023-02-01T05:06:53;6.00;;;2.50;;
40757;SDS011;26462;47.384;19.218;2023-02-01T05:12:37;3.80;;;1.73;;
40757;SDS011;26462;47.384;19.218;2023-02-01T05:15:27;5.20;;;2.78;;
40757;SDS011;26462;47.384;19.218;2023-02-01T05:23:49;5.85;;;2.85;;
40757;SDS011;26462;47.384;19.218;2023-02-01T05:26:45;6.40;;;3.22;;
40757;SDS011;26462;47.384;19.218;2023-02-01T05:29:20;3.42;;;1.90;;
40757;SDS011;26462;47.384;19.218;2023-02-01T05:31:59;2.08;;;0.95;;
40757;SDS011;26462;47.384;19.218;2023-02-01T05:34:48;4.70;;;1.90;;
40757;SDS011;26462;47.384;19.218;2023-02-01T05:57:44;8.15;;;3.40;;
40757;SDS011;26462;47.384;19.218;2023-02-01T07:02:52;24.35;;;8.93;;
40757;SDS011;26462;47.384;19.218;2023-02-01T07:05:22;15.02;;;6.32;;
40757;SDS011;26462;47.384;19.218;2023-02-01T07:07:49;11.93;;;4.88;;
40757;SDS011;26462;47.384;19.218;2023-02-01T07:10:16;10.45;;;3.60;;
40757;SDS011;26462;47.384;19.218;2023-02-01T07:12:44;7.40;;;2.60;;
40757;SDS011;26462;47.384;19.218;2023-02-01T07:15:11;8.07;;;2.70;;
40757;SDS011;26462;47.384;19.218;2023-02-01T07:17:38;4.75;;;1.85;;
40757;SDS011;26462;47.384;19.218;2023-02-01T07:20:06;5.93;;;1.85;;
40757;SDS011;26462;47.384;19.218;2023-02-01T07:22:38;4.68;;;2.10;;
40757;SDS011;26462;47.384;19.218;2023-02-01T07:25:05;5.43;;;2.63;;
40757;SDS011;26462;47.384;19.218;2023-02-01T07:27:34;5.18;;;2.30;;
40757;SDS011;26462;47.384;19.218;2023-02-01T07:30:01;7.65;;;3.40;;
40757;SDS011;26462;47.384;19.218;2023-02-01T07:32:30;8.65;;;3.35;;
40757;SDS011;26462;47.384;19.218;2023-02-01T07:34:57;8.35;;;4.13;;
40757;SDS011;26462;47.384;19.218;2023-02-01T07:37:26;5.75;;;2.00;;
40757;SDS011;26462;47.384;19.218;2023-02-01T07:39:53;5.05;;;2.55;;
40757;SDS011;26462;47.384;19.218;2023-02-01T07:42:21;4.95;;;3.72;;
40757;SDS011;26462;47.384;19.218;2023-02-01T07:44:48;6.43;;;3.05;;
40757;SDS011;26462;47.384;19.218;2023-02-01T07:47:17;4.15;;;1.00;;
40757;SDS011;26462;47.384;19.218;2023-02-01T07:49:44;2.55;;;0.95;;
40757;SDS011;26462;47.384;19.218;2023-02-01T07:52:11;2.33;;;0.73;;
40757;SDS011;26462;47.384;19.218;2023-02-01T07:54:42;4.07;;;2.10;;
40757;SDS011;26462;47.384;19.218;2023-02-01T07:57:09;4.40;;;0.90;;
40757;SDS011;26462;47.384;19.218;2023-02-01T07:59:38;4.22;;;1.52;;
40757;SDS011;26462;47.384;19.218;2023-02-01T08:02:25;3.70;;;1.45;;
40757;SDS011;26462;47.384;19.218;2023-02-01T08:04:54;2.55;;;1.48;;
40757;SDS011;26462;47.384;19.218;2023-02-01T08:07:27;3.70;;;1.15;;
40757;SDS011;26462;47.384;19.218;2023-02-01T08:09:54;2.33;;;1.13;;
40757;SDS011;26462;47.384;19.218;2023-02-01T08:12:21;6.35;;;2.47;;
40757;SDS011;26462;47.384;19.218;2023-02-01T08:14:50;2.95;;;1.60;;
40757;SDS011;26462;47.384;19.218;2023-02-01T08:17:17;4.75;;;1.52;;
40757;SDS011;26462;47.384;19.218;2023-02-01T08:19:44;2.72;;;1.20;;
40757;SDS011;26462;47.384;19.218;2023-02-01T08:22:11;1.98;;;0.98;;
40757;SDS011;26462;47.384;19.218;2023-02-01T08:24:39;4.85;;;1.60;;
40757;SDS011;26462;47.384;19.218;2023-02-01T08:27:07;3.33;;;1.33;;
40757;SDS011;26462;47.384;19.218;2023-02-01T08:29:34;4.75;;;2.58;;
40757;SDS011;26462;47.384;19.218;2023-02-01T08:32:03;3.38;;;1.50;;
40757;SDS011;26462;47.384;19.218;2023-02-01T08:34:30;5.90;;;2.60;;
40757;SDS011;26462;47.384;19.218;2023-02-01T08:37:01;8.55;;;3.80;;
40757;SDS011;26462;47.384;19.218;2023-02-01T08:39:28;3.85;;;2.15;;
40757;SDS011;26462;47.384;19.218;2023-02-01T08:41:58;10.68;;;3.55;;
40757;SDS011;26462;47.384;19.218;2023-02-01T08:44:43;4.53;;;2.25;;
40757;SDS011;26462;47.384;19.218;2023-02-01T08:47:11;13.27;;;5.57;;
40757;SDS011;26462;47.384;19.218;2023-02-01T08:49:46;7.50;;;2.90;;
40757;SDS011;26462;47.384;19.218;2023-02-01T08:52:14;9.70;;;3.42;;
40757;SDS011;26462;47.384;19.218;2023-02-01T08:54:42;4.95;;;2.53;;
40757;SDS011;26462;47.384;19.218;2023-02-01T08:57:09;5.47;;;2.53;;
40757;SDS011;26462;47.384;19.218;2023-02-01T08:59:39;2.60;;;1.08;;
40757;SDS011;26462;47.384;19.218;2023-02-01T09:02:08;4.72;;;1.40;;
40757;SDS011;26462;47.384;19.218;2023-02-01T09:04:40;4.90;;;2.25;;
40757;SDS011;26462;47.384;19.218;2023-02-01T09:07:09;5.25;;;1.15;;
40757;SDS011;26462;47.384;19.218;2023-02-01T09:09:39;5.85;;;2.13;;
40757;SDS011;26462;47.384;19.218;2023-02-01T09:12:07;7.45;;;3.60;;
40757;SDS011;26462;47.384;19.218;2023-02-01T09:14:34;6.55;;;2.72;;
40757;SDS011;26462;47.384;19.218;2023-02-01T09:17:02;5.88;;;2.10;;
40757;SDS011;26462;47.384;19.218;2023-02-01T09:19:34;4.73;;;2.20;;
40757;SDS011;26462;47.384;19.218;2023-02-01T09:22:01;5.93;;;2.20;;
40757;SDS011;26462;47.384;19.218;2023-02-01T09:24:28;2.42;;;1.50;;
40757;SDS011;26462;47.384;19.218;2023-02-01T09:26:56;2.50;;;1.38;;
40757;SDS011;26462;47.384;19.218;2023-02-01T09:29:23;7.10;;;1.90;;
40757;SDS011;26462;47.384;19.218;2023-02-01T09:31:50;3.17;;;1.85;;
40757;SDS011;26462;47.384;19.218;2023-02-01T09:34:29;5.53;;;1.48;;
40757;SDS011;26462;47.384;19.218;2023-02-01T09:36:57;2.83;;;1.10;;
40757;SDS011;26462;47.384;19.218;2023-02-01T09:39:26;3.25;;;1.50;;
40757;SDS011;26462;47.384;19.218;2023-02-01T09:42:02;5.55;;;1.90;;
40757;SDS011;26462;47.384;19.218;2023-02-01T09:47:45;2.78;;;1.42;;
40757;SDS011;26462;47.384;19.218;2023-02-01T09:50:19;7.22;;;2.42;;
40757;SDS011;26462;47.384;19.218;2023-02-01T09:53:33;3.85;;;1.38;;
40757;SDS011;26462;47.384;19.218;2023-02-01T09:56:54;5.30;;;2.03;;
40757;SDS011;26462;47.384;19.218;2023-02-01T10:00:03;6.45;;;2.25;;
40757;SDS011;26462;47.384;19.218;2023-02-01T10:02:39;3.92;;;1.50;;
40757;SDS011;26462;47.384;19.218;2023-02-01T10:05:44;5.60;;;2.50;;
40757;SDS011;26462;47.384;19.218;2023-02-01T10:08:23;5.13;;;2.67;;
40757;SDS011;26462;47.384;19.218;2023-02-01T10:14:52;4.10;;;1.95;;
40757;SDS011;26462;47.384;19.218;2023-02-01T10:24:03;7.85;;;3.55;;
40757;SDS011;26462;47.384;19.218;2023-02-01T10:29:54;5.43;;;2.78;;
40757;SDS011;26462;47.384;19.218;2023-02-01T10:32:34;4.40;;;2.05;;
40757;SDS011;26462;47.384;19.218;2023-02-01T10:35:21;10.63;;;4.38;;
40757;SDS011;26462;47.384;19.218;2023-02-01T10:37:51;5.95;;;2.67;;
40757;SDS011;26462;47.384;19.218;2023-02-01T10:40:23;8.32;;;2.40;;
40757;SDS011;26462;47.384;19.218;2023-02-01T10:43:13;6.40;;;2.83;;
40757;SDS011;26462;47.384;19.218;2023-02-01T10:45:40;5.47;;;2.30;;
40757;SDS011;26462;47.384;19.218;2023-02-01T10:48:08;15.50;;;5.28;;
40757;SDS011;26462;47.384;19.218;2023-02-01T10:56:07;4.78;;;2.35;;
40757;SDS011;26462;47.384;19.218;2023-02-01T11:01:41;5.57;;;3.17;;
40757;SDS011;26462;47.384;19.218;2023-02-01T11:04:30;5.60;;;2.33;;
40757;SDS011;26462;47.384;19.218;2023-02-01T11:07:26;4.38;;;2.13;;
40757;SDS011;26462;47.384;19.218;2023-02-01T11:09:55;7.00;;;3.15;;
40757;SDS011;26462;47.384;19.218;2023-02-01T11:12:32;8.10;;;3.95;;
40757;SDS011;26462;47.384;19.218;2023-02-01T11:17:54;31.48;;;8.13;;
40757;SDS011;26462;47.384;19.218;2023-02-01T11:20:40;34.13;;;9.70;;
40757;SDS011;26462;47.384;19.218;2023-02-01T11:23:17;3.40;;;1.77;;
40757;SDS011;26462;47.384;19.218;2023-02-01T11:31:57;3.92;;;2.50;;
40757;SDS011;26462;47.384;19.218;2023-02-01T11:34:28;5.47;;;3.00;;
40757;SDS011;26462;47.384;19.218;2023-02-01T11:42:31;5.10;;;2.30;;
40757;SDS011;26462;47.384;19.218;2023-02-01T11:45:25;5.70;;;2.70;;
40757;SDS011;26462;47.384;19.218;2023-02-01T11:48:08;4.55;;;2.10;;
40757;SDS011;26462;47.384;19.218;2023-02-01T11:54:21;2.78;;;1.85;;
40757;SDS011;26462;47.384;19.218;2023-02-01T12:17:25;2.70;;;1.60;;
40757;SDS011;26462;47.384;19.218;2023-02-01T12:32:37;8.50;;;3.88;;
40757;SDS011;26462;47.384;19.218;2023-02-01T12:35:23;4.80;;;2.42;;
40757;SDS011;26462;47.384;19.218;2023-02-01T12:38:26;5.82;;;2.50;;
40757;SDS011;26462;47.384;19.218;2023-02-01T12:46:45;5.20;;;2.45;;
40757;SDS011;26462;47.384;19.218;2023-02-01T12:49:28;9.57;;;5.03;;
40757;SDS011;26462;47.384;19.218;2023-02-01T12:52:09;4.28;;;2.17;;
40757;SDS011;26462;47.384;19.218;2023-02-01T12:54:53;6.32;;;2.92;;
40757;SDS011;26462;47.384;19.218;2023-02-01T12:57:40;4.85;;;2.53;;
40757;SDS011;26462;47.384;19.218;2023-02-01T13:06:00;5.60;;;3.15;;
40757;SDS011;26462;47.384;19.218;2023-02-01T13:08:39;9.55;;;4.53;;
40757;SDS011;26462;47.384;19.218;2023-02-01T13:11:29;5.40;;;2.25;;
40757;SDS011;26462;47.384;19.218;2023-02-01T13:14:02;5.38;;;2.63;;
40757;SDS011;26462;47.384;19.218;2023-02-01T13:16:47;8.77;;;4.60;;
40757;SDS011;26462;47.384;19.218;2023-02-01T13:19:22;84.97;;;26.48;;
40757;SDS011;26462;47.384;19.218;2023-02-01T13:22:15;5.83;;;3.40;;
40757;SDS011;26462;47.384;19.218;2023-02-01T13:27:21;13.70;;;10.43;;
40757;SDS011;26462;47.384;19.218;2023-02-01T13:44:30;17.88;;;12.18;;
40757;SDS011;26462;47.384;19.218;2023-02-01T13:47:00;9.75;;;5.60;;
40757;SDS011;26462;47.384;19.218;2023-02-01T13:49:31;8.77;;;4.07;;
40757;SDS011;26462;47.384;19.218;2023-02-01T13:52:04;8.05;;;3.95;;
40757;SDS011;26462;47.384;19.218;2023-02-01T13:54:34;6.40;;;3.67;;
40757;SDS011;26462;47.384;19.218;2023-02-01T13:57:33;15.77;;;8.70;;
40757;SDS011;26462;47.384;19.218;2023-02-01T14:00:23;18.38;;;7.75;;
40757;SDS011;26462;47.384;19.218;2023-02-01T14:24:04;11.63;;;5.78;;
40757;SDS011;26462;47.384;19.218;2023-02-01T14:26:41;5.93;;;2.85;;
40757;SDS011;26462;47.384;19.218;2023-02-01T14:34:35;10.40;;;4.57;;
40757;SDS011;26462;47.384;19.218;2023-02-01T14:37:22;13.48;;;4.57;;
40757;SDS011;26462;47.384;19.218;2023-02-01T14:48:03;10.07;;;4.82;;
40757;SDS011;26462;47.384;19.218;2023-02-01T14:50:43;13.23;;;5.03;;
40757;SDS011;26462;47.384;19.218;2023-02-01T15:03:43;25.83;;;10.52;;
40757;SDS011;26462;47.384;19.218;2023-02-01T15:09:18;33.13;;;13.15;;
40757;SDS011;26462;47.384;19.218;2023-02-01T15:14:39;11.88;;;5.63;;
40757;SDS011;26462;47.384;19.218;2023-02-01T15:17:23;53.47;;;20.35;;
40757;SDS011;26462;47.384;19.218;2023-02-01T15:19:54;37.55;;;16.70;;
40757;SDS011;26462;47.384;19.218;2023-02-01T15:25:45;12.52;;;7.38;;
40757;SDS011;26462;47.384;19.218;2023-02-01T15:28:13;13.15;;;6.72;;
40757;SDS011;26462;47.384;19.218;2023-02-01T15:31:04;23.45;;;12.77;;
40757;SDS011;26462;47.384;19.218;2023-02-01T15:33:32;10.73;;;6.25;;
40757;SDS011;26462;47.384;19.218;2023-02-01T15:38:34;8.27;;;3.33;;
40757;SDS011;26462;47.384;19.218;2023-02-01T15:41:11;7.55;;;3.47;;
40757;SDS011;26462;47.384;19.218;2023-02-01T15:46:31;14.88;;;6.90;;
40757;SDS011;26462;47.384;19.218;2023-02-01T15:49:00;15.75;;;8.20;;
40757;SDS011;26462;47.384;19.218;2023-02-01T15:51:28;6.40;;;3.28;;
40757;SDS011;26462;47.384;19.218;2023-02-01T15:54:03;12.98;;;5.25;;
40757;SDS011;26462;47.384;19.218;2023-02-01T15:56:35;9.23;;;4.95;;
40757;SDS011;26462;47.384;19.218;2023-02-01T15:59:05;4.82;;;2.85;;
40757;SDS011;26462;47.384;19.218;2023-02-01T16:01:41;6.18;;;2.50;;
40757;SDS011;26462;47.384;19.218;2023-02-01T16:04:22;6.60;;;2.72;;
40757;SDS011;26462;47.384;19.218;2023-02-01T16:06:54;11.70;;;6.10;;
40757;SDS011;26462;47.384;19.218;2023-02-01T16:09:23;10.45;;;5.10;;
40757;SDS011;26462;47.384;19.218;2023-02-01T16:11:58;10.30;;;3.57;;
40757;SDS011;26462;47.384;19.218;2023-02-01T16:14:27;4.53;;;1.80;;
40757;SDS011;26462;47.384;19.218;2023-02-01T16:16:58;5.05;;;2.50;;
40757;SDS011;26462;47.384;19.218;2023-02-01T16:19:27;10.48;;;3.50;;
40757;SDS011;26462;47.384;19.218;2023-02-01T16:22:00;6.07;;;2.53;;
40757;SDS011;26462;47.384;19.218;2023-02-01T16:24:30;6.13;;;2.20;;
40757;SDS011;26462;47.384;19.218;2023-02-01T16:27:06;7.38;;;3.38;;
40757;SDS011;26462;47.384;19.218;2023-02-01T16:29:53;3.60;;;1.88;;
40757;SDS011;26462;47.384;19.218;2023-02-01T16:38:22;3.55;;;0.85;;
40757;SDS011;26462;47.384;19.218;2023-02-01T16:40:53;53.42;;;19.85;;
40757;SDS011;26462;47.384;19.218;2023-02-01T16:43:21;78.43;;;29.35;;
40757;SDS011;26462;47.384;19.218;2023-02-01T16:45:53;23.20;;;15.35;;
40757;SDS011;26462;47.384;19.218;2023-02-01T16:48:35;8.38;;;4.70;;
40757;SDS011;26462;47.384;19.218;2023-02-01T16:51:07;5.07;;;2.65;;
40757;SDS011;26462;47.384;19.218;2023-02-01T16:53:37;6.70;;;2.75;;
40757;SDS011;26462;47.384;19.218;2023-02-01T16:56:23;5.22;;;1.52;;
40757;SDS011;26462;47.384;19.218;2023-02-01T16:58:57;8.13;;;5.85;;
40757;SDS011;26462;47.384;19.218;2023-02-01T17:01:26;4.88;;;2.10;;
40757;SDS011;26462;47.384;19.218;2023-02-01T17:03:56;3.28;;;1.02;;
40757;SDS011;26462;47.384;19.218;2023-02-01T17:06:26;3.25;;;1.50;;
40757;SDS011;26462;47.384;19.218;2023-02-01T17:09:16;4.13;;;2.28;;
40757;SDS011;26462;47.384;19.218;2023-02-01T17:11:45;10.02;;;5.20;;
40757;SDS011;26462;47.384;19.218;2023-02-01T17:14:17;8.00;;;4.95;;
40757;SDS011;26462;47.384;19.218;2023-02-01T17:17:27;9.90;;;4.20;;
40757;SDS011;26462;47.384;19.218;2023-02-01T17:20:19;13.32;;;6.57;;
40757;SDS011;26462;47.384;19.218;2023-02-01T17:23:28;20.60;;;10.82;;
40757;SDS011;26462;47.384;19.218;2023-02-01T17:26:03;17.97;;;9.63;;
40757;SDS011;26462;47.384;19.218;2023-02-01T17:31:19;21.33;;;10.63;;
40757;SDS011;26462;47.384;19.218;2023-02-01T17:33:56;25.63;;;13.70;;
40757;SDS011;26462;47.384;19.218;2023-02-01T17:36:25;26.73;;;11.27;;
40757;SDS011;26462;47.384;19.218;2023-02-01T17:39:05;32.45;;;16.85;;
40757;SDS011;26462;47.384;19.218;2023-02-01T17:41:41;47.65;;;22.20;;
40757;SDS011;26462;47.384;19.218;2023-02-01T17:44:13;92.45;;;39.80;;
40757;SDS011;26462;47.384;19.218;2023-02-01T17:46:42;55.33;;;29.77;;
40757;SDS011;26462;47.384;19.218;2023-02-01T17:49:16;52.15;;;26.65;;
40757;SDS011;26462;47.384;19.218;2023-02-01T17:51:49;43.08;;;32.53;;
40757;SDS011;26462;47.384;19.218;2023-02-01T17:54:19;39.28;;;20.55;;
40757;SDS011;26462;47.384;19.218;2023-02-01T17:56:47;25.95;;;13.57;;
40757;SDS011;26462;47.384;19.218;2023-02-01T17:59:15;63.03;;;29.05;;
40757;SDS011;26462;47.384;19.218;2023-02-01T18:04:52;23.48;;;11.10;;
40757;SDS011;26462;47.384;19.218;2023-02-01T18:07:30;31.27;;;16.73;;
40757;SDS011;26462;47.384;19.218;2023-02-01T18:13:36;40.77;;;19.07;;
40757;SDS011;26462;47.384;19.218;2023-02-01T18:16:52;12.98;;;6.63;;
40757;SDS011;26462;47.384;19.218;2023-02-01T18:26:08;17.70;;;8.05;;
40757;SDS011;26462;47.384;19.218;2023-02-01T18:28:50;45.83;;;17.48;;
40757;SDS011;26462;47.384;19.218;2023-02-01T18:38:10;6.85;;;4.00;;
40757;SDS011;26462;47.384;19.218;2023-02-01T18:40:50;5.53;;;2.90;;
40757;SDS011;26462;47.384;19.218;2023-02-01T18:43:54;4.18;;;1.98;;
40757;SDS011;26462;47.384;19.218;2023-02-01T18:46:42;14.70;;;5.10;;
40757;SDS011;26462;47.384;19.218;2023-02-01T18:49:23;20.90;;;7.28;;
40757;SDS011;26462;47.384;19.218;2023-02-01T18:52:08;18.52;;;5.75;;
40757;SDS011;26462;47.384;19.218;2023-02-01T18:58:25;14.25;;;3.60;;
40757;SDS011;26462;47.384;19.218;2023-02-01T19:01:20;19.65;;;6.30;;
40757;SDS011;26462;47.384;19.218;2023-02-01T20:16:49;32.72;;;15.35;;
40757;SDS011;26462;47.384;19.218;2023-02-01T20:23:23;31.55;;;10.82;;
40757;SDS011;26462;47.384;19.218;2023-02-01T20:28:54;9.20;;;2.85;;
40757;SDS011;26462;47.384;19.218;2023-02-01T20:31:24;56.75;;;17.00;;
40757;SDS011;26462;47.384;19.218;2023-02-01T20:33:56;90.20;;;23.90;;
40757;SDS011;26462;47.384;19.218;2023-02-01T20:36:26;125.65;;;28.42;;
40757;SDS011;26462;47.384;19.218;2023-02-01T20:38:55;50.47;;;13.27;;
40757;SDS011;26462;47.384;19.218;2023-02-01T20:41:24;14.65;;;4.75;;
40757;SDS011;26462;47.384;19.218;2023-02-01T20:43:54;10.30;;;3.13;;
40757;SDS011;26462;47.384;19.218;2023-02-01T20:46:23;4.05;;;2.38;;
40757;SDS011;26462;47.384;19.218;2023-02-01T20:48:54;42.35;;;10.43;;
40757;SDS011;26462;47.384;19.218;2023-02-01T20:51:23;13.88;;;4.10;;
40757;SDS011;26462;47.384;19.218;2023-02-01T20:53:53;49.33;;;12.45;;
40757;SDS011;26462;47.384;19.218;2023-02-01T20:56:20;12.80;;;4.25;;
40757;SDS011;26462;47.384;19.218;2023-02-01T20:58:49;5.07;;;1.42;;
40757;SDS011;26462;47.384;19.218;2023-02-01T21:01:30;81.93;;;21.02;;
40757;SDS011;26462;47.384;19.218;2023-02-01T21:04:02;14.90;;;5.90;;
40757;SDS011;26462;47.384;19.218;2023-02-01T21:06:30;19.92;;;6.05;;
40757;SDS011;26462;47.384;19.218;2023-02-01T21:08:59;12.48;;;3.33;;
40757;SDS011;26462;47.384;19.218;2023-02-01T21:11:32;19.30;;;7.18;;
40757;SDS011;26462;47.384;19.218;2023-02-01T21:14:00;9.40;;;2.42;;
40757;SDS011;26462;47.384;19.218;2023-02-01T21:16:33;13.07;;;3.53;;
40757;SDS011;26462;47.384;19.218;2023-02-01T21:19:07;16.33;;;6.05;;
40757;SDS011;26462;47.384;19.218;2023-02-01T21:21:39;11.30;;;4.35;;
40757;SDS011;26462;47.384;19.218;2023-02-01T21:24:08;4.90;;;2.05;;
40757;SDS011;26462;47.384;19.218;2023-02-01T21:26:46;7.00;;;1.63;;
40757;SDS011;26462;47.384;19.218;2023-02-01T21:29:18;27.23;;;8.15;;
40757;SDS011;26462;47.384;19.218;2023-02-01T21:31:45;23.58;;;8.20;;
40757;SDS011;26462;47.384;19.218;2023-02-01T21:36:47;44.17;;;11.50;;
40757;SDS011;26462;47.384;19.218;2023-02-01T21:39:14;32.60;;;8.70;;
40757;SDS011;26462;47.384;19.218;2023-02-01T21:41:46;9.45;;;4.00;;
40757;SDS011;26462;47.384;19.218;2023-02-01T21:44:32;27.38;;;8.55;;
40757;SDS011;26462;47.384;19.218;2023-02-01T21:47:03;29.50;;;10.82;;
40757;SDS011;26462;47.384;19.218;2023-02-01T21:49:36;33.88;;;11.95;;
40757;SDS011;26462;47.384;19.218;2023-02-01T21:52:04;31.38;;;9.73;;
40757;SDS011;26462;47.384;19.218;2023-02-01T21:54:31;16.00;;;8.07;;
40757;SDS011;26462;47.384;19.218;2023-02-01T21:56:59;13.30;;;5.00;;
40757;SDS011;26462;47.384;19.218;2023-02-01T21:59:27;30.80;;;9.57;;
40757;SDS011;26462;47.384;19.218;2023-02-01T22:02:05;6.82;;;2.33;;
40757;SDS011;26462;47.384;19.218;2023-02-01T22:04:37;14.00;;;4.95;;
40757;SDS011;26462;47.384;19.218;2023-02-01T22:07:05;8.10;;;3.75;;
40757;SDS011;26462;47.384;19.218;2023-02-01T23:48:26;4.07;;;1.85;;
